This is the latest recevied weather packets stored in our database for station/object AA4XD. If no packets are shown the sender has not sent any weather packets the latest 10 day(s).
| Time | Temp. | Humidity | Pressure | Rain* | Wind** | Luminosity | Snow |
|---|---|---|---|---|---|---|---|
| 1777491249 | 32.78° C | 45% | 1012 hPa | 0 mm | - | 832 W/m² | - |
| 1777490945 | 33.33° C | 45% | 1012.1 hPa | 0 mm | - | 597 W/m² | - |
| 1777490640 | 32.78° C | 46% | 1012.1 hPa | 0 mm | - | 844 W/m² | - |
| 1777490336 | 32.22° C | 47% | 1012.2 hPa | 0 mm | - | 874 W/m² | - |
| 1777490035 | 32.78° C | 46% | 1012.2 hPa | 0 mm | - | 878 W/m² | - |
| 1777489732 | 32.78° C | 45% | 1012.4 hPa | 0 mm | - | 876 W/m² | - |
| 1777489429 | 32.78° C | 46% | 1012.5 hPa | 0 mm | - | 895 W/m² | - |
| 1777489126 | 32.78° C | 47% | 1012.7 hPa | 0 mm | - | 931 W/m² | - |
| 1777488823 | 32.78° C | 48% | 1012.7 hPa | 0 mm | - | 916 W/m² | - |
| 1777488520 | 32.78° C | 46% | 1012.8 hPa | 0 mm | - | 917 W/m² | - |
| 1777488218 | 32.22° C | 48% | 1012.9 hPa | 0 mm | - | 947 W/m² | - |
| 1777487916 | 32.22° C | 49% | 1013 hPa | 0 mm | - | 488 W/m² | - |
| 1777487614 | 32.22° C | 48% | 1013.2 hPa | 0 mm | - | 294 W/m² | - |
| 1777487310 | 33.33° C | 47% | 1013.2 hPa | 0 mm | - | 996 W/m² | - |
| 1777487008 | 32.78° C | 48% | 1013.4 hPa | 0 mm | - | 986 W/m² | - |
| 1777486703 | 33.33° C | 46% | 1013.4 hPa | 0 mm | - | 986 W/m² | - |
| 1777486402 | 33.33° C | 47% | 1013.4 hPa | 0 mm | - | 1022 W/m² | - |
| 1777486099 | 33.33° C | 46% | 1013.6 hPa | 0 mm | - | 1015 W/m² | - |
| 1777485795 | 32.22° C | 50% | 1013.6 hPa | 0 mm | - | 1049 W/m² | - |
| 1777485491 | 32.78° C | 47% | 1013.9 hPa | 0 mm | - | 1078 W/m² | - |
| 1777485187 | 33.33° C | 47% | 1013.7 hPa | 0 mm | - | 1135 W/m² | - |
| 1777484883 | 32.78° C | 49% | 1013.9 hPa | 0 mm | - | 1022 W/m² | - |
| 1777484581 | 32.22° C | 50% | 1014.3 hPa | 0 mm | - | 1079 W/m² | - |
| 1777484277 | 32.78° C | 51% | 1014.2 hPa | 0 mm | - | 286 W/m² | - |
| 1777483973 | 31.67° C | 52% | 1014.4 hPa | 0 mm | - | 1077 W/m² | - |
* Rain latest hour (hover to see other rain measurements)
** Current wind speed in m/s (hover to see current wind gust speed)